Un Akdeniz — TCTD2 — position and weather

sailwx.info

Track history (hours):
 
Tides and Currents Weather Stations Pressure Air Temp Water Temp Dewpoint Dewpoint Depression Visibility Wind Speed Wind Dir Waves Ship Positions

Un Akdeniz

Last reported at 2014-Aug-22 02:09 UTC. Time now 2014-Aug-22 11:53 UTC.
Position N 36°25' E 023°12'.

Length 193 m; draft 6.7 m.

Type: Ship (hazmat cat A). MMSI: 271002572.

Date/timePositionNaut miles runAvg speedWind from/ knotsBaromVisibWave heightAir tempDewpointWater temp
2014-Aug-22 02:09N 36°25' E 023°12'1219.7
2014-Aug-22 01:33N 36°34' E 023°20'2019.8
2014-Aug-22 00:34N 36°51' E 023°33'2019.8
2014-Aug-21 23:33N 37°08' E 023°47'2019.9
2014-Aug-21 22:33N 37°25' E 024°00'2619.0
2014-Aug-21 21:13N 37°46' E 024°18'1418.5
2014-Aug-21 20:28N 37°55' E 024°32'2518.9
2014-Aug-21 19:08N 38°17' E 024°46'3419.3
2014-Aug-21 17:22N 38°47' E 025°07'4419.7
2014-Aug-21 15:10N 39°27' E 025°30'3920.1
2014-Aug-21 13:14N 39°59' E 025°58'1318.7
2014-Aug-21 12:33N 40°02' E 026°14'4614.4
2014-Aug-21 09:20N 40°32' E 027°01'5819.2
2014-Aug-21 06:20N 40°50' E 028°13'1518.9
2014-Aug-21 05:32N 40°49' E 028°33'1919.4
2014-Aug-21 04:33N 40°48' E 028°58'1414.0
2014-Aug-21 03:33N 40°51' E 029°16'0 0.0
2014-Aug-21 02:32N 40°51' E 029°16'0 0.0
2014-Aug-21 01:23N 40°51' E 029°16'0 0.0
2014-Aug-21 00:13N 40°51' E 029°16'0 0.0
2014-Aug-20 23:25N 40°51' E 029°16'0 0.0
2014-Aug-20 22:27N 40°51' E 029°16'0 0.0
2014-Aug-20 21:33N 40°51' E 029°16'0 0.0
2014-Aug-20 20:29N 40°51' E 029°16'0 0.0
2014-Aug-20 19:29N 40°51' E 029°16'8 8.6
2014-Aug-20 18:33N 40°47' E 029°07'6 5.7
2014-Aug-20 17:33N 40°44' E 029°01'1 0.9
2014-Aug-20 16:33N 40°45' E 029°01'1 0.7
2014-Aug-20 15:33N 40°46' E 029°01'1 0.7
2014-Aug-20 14:33N 40°46' E 029°01'0 0.5
2014-Aug-20 13:33N 40°47' E 029°01'1616.1
2014-Aug-20 12:33N 40°47' E 028°40'8519.0
2014-Aug-20 08:05N 40°28' E 026°51'1416.2
2014-Aug-20 07:11N 40°19' E 026°36'2513.8
2014-Aug-20 05:24N 40°02' E 026°13'1516.9
2014-Aug-20 04:30N 39°54' E 025°56'1818.9
2014-Aug-20 03:33N 39°38' E 025°44'2018.9
2014-Aug-20 02:31N 39°21' E 025°33'2418.8
2014-Aug-20 01:15N 38°60' E 025°19'8718.4
2014-Aug-19 20:31N 37°41' E 024°30'2219.0
2014-Aug-19 19:23N 37°23' E 024°14'2419.3
2014-Aug-19 18:07N 37°03' E 023°57'1119.2
2014-Aug-19 17:33N 36°55' E 023°49'85618.2
2014-Aug-17 18:33N 42°31' E 006°45'1919.5
2014-Aug-17 17:33N 42°42' E 006°24'1919.2
2014-Aug-17 16:33N 42°54' E 006°04'1413.8
2014-Aug-17 15:33N 43°06' E 005°55'1 0.9
2014-Aug-17 14:33N 43°06' E 005°54'0 0.0
2014-Aug-17 13:33N 43°06' E 005°54'0 0.0
2014-Aug-17 12:33N 43°06' E 005°54'0 0.0
2014-Aug-17 11:33N 43°06' E 005°54'0 0.0
2014-Aug-17 10:33N 43°06' E 005°54'0 0.0
2014-Aug-17 09:32N 43°06' E 005°54'0 0.0
2014-Aug-17 08:33N 43°06' E 005°54'0 0.0
2014-Aug-17 07:33N 43°06' E 005°54'0 0.0
2014-Aug-17 06:33N 43°06' E 005°54'7 7.0
2014-Aug-17 05:33N 43°02' E 006°01'2020.2
2014-Aug-17 04:33N 42°49' E 006°23'1313.4
2014-Aug-17 03:34N 42°41' E 006°37'1212.2
2014-Aug-17 02:34N 42°34' E 006°50'1211.7
2014-Aug-17 01:34N 42°27' E 007°03'1211.9
2014-Aug-17 00:34N 42°20' E 007°16'82017.5
2014-Aug-15 01:33N 36°28' E 023°15'2120.6
2014-Aug-15 00:33N 36°46' E 023°28'2020.5
2014-Aug-14 23:33N 37°03' E 023°41'2120.4
2014-Aug-14 22:33N 37°20' E 023°55'2020.2
2014-Aug-14 21:33N 37°37' E 024°10'2019.5
2014-Aug-14 20:33N 37°51' E 024°27'4320.3
2014-Aug-14 18:26N 38°28' E 024°54'2120.4
2014-Aug-14 17:24N 38°47' E 025°06'1720.3
2014-Aug-14 16:33N 39°02' E 025°17'4120.2
2014-Aug-14 14:32N 39°39' E 025°40'2020.3
2014-Aug-14 13:33N 39°56' E 025°53'14017.6
2014-Aug-14 05:33N 40°48' E 028°44'2019.7
2014-Aug-14 04:32N 40°50' E 029°11'4 4.5
2014-Aug-14 03:33N 40°51' E 029°16'0 0.0
2014-Aug-14 02:33N 40°51' E 029°16'0 0.0
2014-Aug-14 01:33N 40°51' E 029°16'0 0.0
2014-Aug-14 00:33N 40°51' E 029°16'0 0.0
2014-Aug-13 23:33N 40°51' E 029°16'0 0.0
2014-Aug-13 22:33N 40°51' E 029°16'0 0.0
2014-Aug-13 21:33N 40°51' E 029°16'0 0.0
2014-Aug-13 20:33N 40°51' E 029°16'2 2.4
2014-Aug-13 19:31N 40°51' E 029°13'8 8.3
2014-Aug-13 18:33N 40°49' E 029°03'1818.0
2014-Aug-13 17:32N 40°49' E 028°39'12016.4
2014-Aug-13 10:15N 40°02' E 026°14'1512.3
2014-Aug-13 09:04N 39°56' E 025°57'6 8.8
2014-Aug-13 08:24N 39°51' E 025°53'3712.5
2014-Aug-13 05:27N 39°18' E 025°31'2318.3
2014-Aug-13 04:12N 38°58' E 025°18'4818.3
2014-Aug-13 01:33N 38°15' E 024°50'3718.7
2014-Aug-12 23:33N 37°41' E 024°29'2118.8
2014-Aug-12 22:26N 37°23' E 024°15'2219.0
2014-Aug-12 21:16N 37°05' E 023°59'1518.7
2014-Aug-12 20:28N 36°53' E 023°48'  
Track history (hours):
 
Tides and Currents Weather Stations Pressure Air Temp Water Temp Dewpoint Dewpoint Depression Visibility Wind Speed Wind Dir Waves Ship Positions

Un Akdeniz

Last reported at 2014-Aug-22 02:09 UTC. Time now 2014-Aug-22 11:53 UTC.
Position N 36°25' E 023°12'.

Length 193 m; draft 6.7 m.

Type: Ship (hazmat cat A). MMSI: 271002572.

Date/timePositionNaut miles runAvg speedWind from/ knotsBaromVisibWave heightAir tempDewpointWater temp
2014-Aug-22 02:09N 36°25' E 023°12'1219.7
2014-Aug-22 01:33N 36°34' E 023°20'2019.8
2014-Aug-22 00:34N 36°51' E 023°33'2019.8
2014-Aug-21 23:33N 37°08' E 023°47'2019.9
2014-Aug-21 22:33N 37°25' E 024°00'2619.0
2014-Aug-21 21:13N 37°46' E 024°18'1418.5
2014-Aug-21 20:28N 37°55' E 024°32'2518.9
2014-Aug-21 19:08N 38°17' E 024°46'3419.3
2014-Aug-21 17:22N 38°47' E 025°07'4419.7
2014-Aug-21 15:10N 39°27' E 025°30'3920.1
2014-Aug-21 13:14N 39°59' E 025°58'1318.7
2014-Aug-21 12:33N 40°02' E 026°14'4614.4
2014-Aug-21 09:20N 40°32' E 027°01'5819.2
2014-Aug-21 06:20N 40°50' E 028°13'1518.9
2014-Aug-21 05:32N 40°49' E 028°33'1919.4
2014-Aug-21 04:33N 40°48' E 028°58'1414.0
2014-Aug-21 03:33N 40°51' E 029°16'0 0.0
2014-Aug-21 02:32N 40°51' E 029°16'0 0.0
2014-Aug-21 01:23N 40°51' E 029°16'0 0.0
2014-Aug-21 00:13N 40°51' E 029°16'0 0.0
2014-Aug-20 23:25N 40°51' E 029°16'0 0.0
2014-Aug-20 22:27N 40°51' E 029°16'0 0.0
2014-Aug-20 21:33N 40°51' E 029°16'0 0.0
2014-Aug-20 20:29N 40°51' E 029°16'0 0.0
2014-Aug-20 19:29N 40°51' E 029°16'8 8.6
2014-Aug-20 18:33N 40°47' E 029°07'6 5.7
2014-Aug-20 17:33N 40°44' E 029°01'1 0.9
2014-Aug-20 16:33N 40°45' E 029°01'1 0.7
2014-Aug-20 15:33N 40°46' E 029°01'1 0.7
2014-Aug-20 14:33N 40°46' E 029°01'0 0.5
2014-Aug-20 13:33N 40°47' E 029°01'1616.1
2014-Aug-20 12:33N 40°47' E 028°40'8519.0
2014-Aug-20 08:05N 40°28' E 026°51'1416.2
2014-Aug-20 07:11N 40°19' E 026°36'2513.8
2014-Aug-20 05:24N 40°02' E 026°13'1516.9
2014-Aug-20 04:30N 39°54' E 025°56'1818.9
2014-Aug-20 03:33N 39°38' E 025°44'2018.9
2014-Aug-20 02:31N 39°21' E 025°33'2418.8
2014-Aug-20 01:15N 38°60' E 025°19'8718.4
2014-Aug-19 20:31N 37°41' E 024°30'2219.0
2014-Aug-19 19:23N 37°23' E 024°14'2419.3
2014-Aug-19 18:07N 37°03' E 023°57'1119.2
2014-Aug-19 17:33N 36°55' E 023°49'85618.2
2014-Aug-17 18:33N 42°31' E 006°45'1919.5
2014-Aug-17 17:33N 42°42' E 006°24'1919.2
2014-Aug-17 16:33N 42°54' E 006°04'1413.8
2014-Aug-17 15:33N 43°06' E 005°55'1 0.9
2014-Aug-17 14:33N 43°06' E 005°54'0 0.0
2014-Aug-17 13:33N 43°06' E 005°54'0 0.0
2014-Aug-17 12:33N 43°06' E 005°54'0 0.0
2014-Aug-17 11:33N 43°06' E 005°54'0 0.0
2014-Aug-17 10:33N 43°06' E 005°54'0 0.0
2014-Aug-17 09:32N 43°06' E 005°54'0 0.0
2014-Aug-17 08:33N 43°06' E 005°54'0 0.0
2014-Aug-17 07:33N 43°06' E 005°54'0 0.0
2014-Aug-17 06:33N 43°06' E 005°54'7 7.0
2014-Aug-17 05:33N 43°02' E 006°01'2020.2
2014-Aug-17 04:33N 42°49' E 006°23'1313.4
2014-Aug-17 03:34N 42°41' E 006°37'1212.2
2014-Aug-17 02:34N 42°34' E 006°50'1211.7
2014-Aug-17 01:34N 42°27' E 007°03'1211.9
2014-Aug-17 00:34N 42°20' E 007°16'82017.5
2014-Aug-15 01:33N 36°28' E 023°15'2120.6
2014-Aug-15 00:33N 36°46' E 023°28'2020.5
2014-Aug-14 23:33N 37°03' E 023°41'2120.4
2014-Aug-14 22:33N 37°20' E 023°55'2020.2
2014-Aug-14 21:33N 37°37' E 024°10'2019.5
2014-Aug-14 20:33N 37°51' E 024°27'4320.3
2014-Aug-14 18:26N 38°28' E 024°54'2120.4
2014-Aug-14 17:24N 38°47' E 025°06'1720.3
2014-Aug-14 16:33N 39°02' E 025°17'4120.2
2014-Aug-14 14:32N 39°39' E 025°40'2020.3
2014-Aug-14 13:33N 39°56' E 025°53'14017.6
2014-Aug-14 05:33N 40°48' E 028°44'2019.7
2014-Aug-14 04:32N 40°50' E 029°11'4 4.5
2014-Aug-14 03:33N 40°51' E 029°16'0 0.0
2014-Aug-14 02:33N 40°51' E 029°16'0 0.0
2014-Aug-14 01:33N 40°51' E 029°16'0 0.0
2014-Aug-14 00:33N 40°51' E 029°16'0 0.0
2014-Aug-13 23:33N 40°51' E 029°16'0 0.0
2014-Aug-13 22:33N 40°51' E 029°16'0 0.0
2014-Aug-13 21:33N 40°51' E 029°16'0 0.0
2014-Aug-13 20:33N 40°51' E 029°16'2 2.4
2014-Aug-13 19:31N 40°51' E 029°13'8 8.3
2014-Aug-13 18:33N 40°49' E 029°03'1818.0
2014-Aug-13 17:32N 40°49' E 028°39'12016.4
2014-Aug-13 10:15N 40°02' E 026°14'1512.3
2014-Aug-13 09:04N 39°56' E 025°57'6 8.8
2014-Aug-13 08:24N 39°51' E 025°53'3712.5
2014-Aug-13 05:27N 39°18' E 025°31'2318.3
2014-Aug-13 04:12N 38°58' E 025°18'4818.3
2014-Aug-13 01:33N 38°15' E 024°50'3718.7
2014-Aug-12 23:33N 37°41' E 024°29'2118.8
2014-Aug-12 22:26N 37°23' E 024°15'2219.0
2014-Aug-12 21:16N 37°05' E 023°59'1518.7
2014-Aug-12 20:28N 36°53' E 023°48'  

Dump ship's entire track history